CST,Max TemperatureF,Mean TemperatureF,Min TemperatureF,Max Dew PointF,MeanDew PointF,Min DewpointF,Max Humidity, Mean Humidity, Min Humidity, Max Sea Level PressureIn, Mean Sea Level PressureIn, Min Sea Level PressureIn, Max VisibilityMiles, Mean VisibilityMiles, Min VisibilityMiles, Max Wind SpeedMPH, Mean Wind SpeedMPH, Max Gust SpeedMPH,PrecipitationIn, CloudCover, Events, WindDirDegrees
2014-1-1,47,34,21,27,21,17,84,62,39,30.41,30.08,29.84,10,10,10,28,12,36,0.00,2,,353
2014-1-2,52,34,16,26,20,13,84,59,33,30.44,30.34,30.19,10,10,10,20,8,23,0.00,0,,224
2014-1-3,62,44,26,25,21,15,81,51,21,30.14,29.83,29.57,10,10,10,22,11,25,0.00,0,,204
2014-1-4,48,35,21,28,22,15,84,58,31,30.10,29.86,29.54,10,8,2,26,17,33,0.02,6,Snow,356
2014-1-5,21,15,8,15,6,0,84,69,53,30.62,30.37,30.07,10,10,10,23,12,30,T,4,,357
2014-1-6,32,17,1,15,7,-4,87,67,47,30.63,30.52,30.30,10,10,9,22,10,28,T,1,Snow,224
2014-1-7,54,37,20,25,17,10,67,48,29,30.27,30.07,29.86,10,10,10,20,8,27,0.00,0,,196
2014-1-8,36,31,26,24,22,19,84,64,44,30.22,30.06,29.82,10,10,10,23,10,29,0.00,3,,8
2014-1-9,54,35,16,26,21,12,92,60,28,30.19,29.97,29.70,10,10,8,21,8,25,0.00,1,,180
2014-1-10,54,41,28,22,14,1,59,36,12,29.87,29.70,29.59,10,10,10,25,14,32,0.00,0,,285
2014-1-11,58,43,27,19,16,14,58,38,17,30.09,29.94,29.73,10,10,10,16,10,20,0.00,0,,226
2014-1-12,66,51,35,29,22,19,60,39,18,29.90,29.65,29.48,10,10,7,32,16,38,0.00,2,,271
2014-1-13,57,40,23,16,10,4,50,31,12,30.08,29.99,29.91,10,10,1,17,11,24,0.00,0,,267
2014-1-14,46,38,28,22,16,10,58,42,32,30.39,30.22,29.91,10,10,10,27,17,37,0.00,3,,332
2014-1-15,58,43,27,21,19,15,63,43,23,30.39,30.15,29.96,10,10,10,26,12,32,0.00,2,,245
2014-1-16,53,42,31,20,16,12,56,38,20,30.25,30.15,30.01,10,10,8,29,15,36,0.00,3,,339
2014-1-17,58,38,17,17,13,8,74,46,17,30.32,30.18,30.01,10,10,10,22,8,26,0.00,0,,258
2014-1-18,62,44,26,17,14,10,58,37,15,30.22,30.12,30.01,10,10,9,37,14,46,0.00,1,,321
2014-1-19,72,49,26,14,13,10,50,30,9,30.18,30.00,29.86,10,10,10,25,10,31,0.00,0,,246
2014-1-20,55,43,31,17,14,11,40,30,19,30.41,30.13,29.85,10,10,10,29,14,37,0.00,1,,337
2014-1-21,69,42,15,17,11,0,67,37,7,30.43,30.22,30.00,10,10,10,21,7,24,0.00,0,,242
2014-1-22,49,37,24,21,17,10,63,47,31,30.29,30.14,30.06,10,10,10,17,8,23,0.00,0,,43
2014-1-23,31,16,0,14,2,-8,87,64,40,30.82,30.68,30.35,10,6,1,23,12,32,0.06,6,Snow,16
2014-1-24,58,29,0,25,13,-4,80,48,15,30.71,30.33,30.13,10,10,10,20,11,24,0.00,0,,247
2014-1-25,63,47,31,26,23,18,64,44,23,30.15,30.04,29.86,10,10,10,17,6,22,0.00,0,,236
2014-1-26,61,45,28,26,23,15,72,48,23,30.14,29.83,29.71,10,10,8,38,11,49,0.00,0,,358
2014-1-27,28,21,13,11,-2,-8,58,46,33,30.42,30.32,30.18,10,10,3,26,11,31,T,8,Snow,69
2014-1-28,34,21,7,15,9,4,91,65,38,30.49,30.36,30.27,10,6,1,13,5,14,0.09,5,Snow,201
2014-1-29,55,36,17,11,8,6,67,41,14,30.23,29.98,29.65,10,10,10,22,11,26,0.00,0,,205
2014-1-30,56,43,30,30,22,10,69,48,27,29.76,29.64,29.45,10,10,10,22,13,28,0.00,0,,74
2014-1-31,32,27,22,21,18,15,81,70,58,29.96,29.83,29.73,10,10,10,18,9,24,0.01,5,,35